sensor_id;sensor_type;location;lat;lon;timestamp;P1;durP1;ratioP1;P2;durP2;ratioP2
17993;SDS011;9122;48.406;9.984;2022-12-07T00:01:13;9.43;;;8.50;;
17993;SDS011;9122;48.406;9.984;2022-12-07T00:04:02;9.60;;;8.60;;
17993;SDS011;9122;48.406;9.984;2022-12-07T00:06:50;11.67;;;8.93;;
17993;SDS011;9122;48.406;9.984;2022-12-07T00:09:36;9.57;;;8.67;;
17993;SDS011;9122;48.406;9.984;2022-12-07T00:12:20;9.10;;;8.30;;
17993;SDS011;9122;48.406;9.984;2022-12-07T00:15:05;8.97;;;8.17;;
17993;SDS011;9122;48.406;9.984;2022-12-07T00:17:50;8.97;;;8.17;;
17993;SDS011;9122;48.406;9.984;2022-12-07T00:20:34;8.70;;;7.90;;
17993;SDS011;9122;48.406;9.984;2022-12-07T00:23:19;9.67;;;8.77;;
17993;SDS011;9122;48.406;9.984;2022-12-07T00:26:08;9.57;;;8.67;;
17993;SDS011;9122;48.406;9.984;2022-12-07T00:28:55;9.13;;;8.23;;
17993;SDS011;9122;48.406;9.984;2022-12-07T00:31:41;10.03;;;9.13;;
17993;SDS011;9122;48.406;9.984;2022-12-07T00:34:26;9.07;;;8.27;;
17993;SDS011;9122;48.406;9.984;2022-12-07T00:37:10;10.27;;;9.20;;
17993;SDS011;9122;48.406;9.984;2022-12-07T00:39:56;9.70;;;8.80;;
17993;SDS011;9122;48.406;9.984;2022-12-07T00:42:41;9.93;;;9.03;;
17993;SDS011;9122;48.406;9.984;2022-12-07T00:45:25;10.23;;;9.20;;
17993;SDS011;9122;48.406;9.984;2022-12-07T00:48:10;10.70;;;9.70;;
17993;SDS011;9122;48.406;9.984;2022-12-07T00:50:54;9.73;;;8.83;;
17993;SDS011;9122;48.406;9.984;2022-12-07T00:53:39;11.30;;;9.80;;
17993;SDS011;9122;48.406;9.984;2022-12-07T00:56:25;9.73;;;8.83;;
17993;SDS011;9122;48.406;9.984;2022-12-07T00:59:11;9.90;;;9.00;;
17993;SDS011;9122;48.406;9.984;2022-12-07T01:02:00;9.73;;;8.83;;
17993;SDS011;9122;48.406;9.984;2022-12-07T01:04:45;10.13;;;9.20;;
17993;SDS011;9122;48.406;9.984;2022-12-07T01:07:29;10.10;;;9.10;;
17993;SDS011;9122;48.406;9.984;2022-12-07T01:10:14;9.90;;;9.00;;
17993;SDS011;9122;48.406;9.984;2022-12-07T01:12:59;8.63;;;7.83;;
17993;SDS011;9122;48.406;9.984;2022-12-07T01:15:44;9.77;;;8.77;;
17993;SDS011;9122;48.406;9.984;2022-12-07T01:18:29;10.33;;;9.30;;
17993;SDS011;9122;48.406;9.984;2022-12-07T01:21:17;10.30;;;9.40;;
17993;SDS011;9122;48.406;9.984;2022-12-07T01:24:01;9.90;;;9.00;;
17993;SDS011;9122;48.406;9.984;2022-12-07T01:26:48;10.83;;;9.80;;
17993;SDS011;9122;48.406;9.984;2022-12-07T01:29:33;10.47;;;9.47;;
17993;SDS011;9122;48.406;9.984;2022-12-07T01:32:18;10.33;;;9.30;;
17993;SDS011;9122;48.406;9.984;2022-12-07T01:35:03;10.83;;;9.80;;
17993;SDS011;9122;48.406;9.984;2022-12-07T01:37:47;11.37;;;10.23;;
17993;SDS011;9122;48.406;9.984;2022-12-07T01:40:31;10.90;;;9.90;;
17993;SDS011;9122;48.406;9.984;2022-12-07T01:43:16;10.73;;;9.63;;
17993;SDS011;9122;48.406;9.984;2022-12-07T01:46:03;10.83;;;9.77;;
17993;SDS011;9122;48.406;9.984;2022-12-07T01:48:47;11.33;;;10.13;;
17993;SDS011;9122;48.406;9.984;2022-12-07T01:51:32;11.50;;;10.30;;
17993;SDS011;9122;48.406;9.984;2022-12-07T01:54:17;11.40;;;10.00;;
17993;SDS011;9122;48.406;9.984;2022-12-07T01:57:04;11.90;;;10.40;;
17993;SDS011;9122;48.406;9.984;2022-12-07T01:59:51;13.00;;;10.63;;
17993;SDS011;9122;48.406;9.984;2022-12-07T02:02:38;11.47;;;10.37;;
17993;SDS011;9122;48.406;9.984;2022-12-07T02:05:27;11.53;;;10.40;;
17993;SDS011;9122;48.406;9.984;2022-12-07T02:08:12;11.97;;;10.70;;
17993;SDS011;9122;48.406;9.984;2022-12-07T02:10:58;12.50;;;11.17;;
17993;SDS011;9122;48.406;9.984;2022-12-07T02:13:43;12.70;;;11.07;;
17993;SDS011;9122;48.406;9.984;2022-12-07T02:28:36;16.27;;;13.23;;
17993;SDS011;9122;48.406;9.984;2022-12-07T02:31:33;12.00;;;10.73;;
17993;SDS011;9122;48.406;9.984;2022-12-07T02:37:09;13.90;;;12.30;;
17993;SDS011;9122;48.406;9.984;2022-12-07T02:40:18;12.73;;;11.37;;
17993;SDS011;9122;48.406;9.984;2022-12-07T02:43:09;14.20;;;12.70;;
17993;SDS011;9122;48.406;9.984;2022-12-07T02:46:08;13.53;;;12.10;;
17993;SDS011;9122;48.406;9.984;2022-12-07T02:48:58;15.63;;;12.43;;
17993;SDS011;9122;48.406;9.984;2022-12-07T02:51:45;15.73;;;12.97;;
17993;SDS011;9122;48.406;9.984;2022-12-07T02:54:30;14.47;;;12.50;;
17993;SDS011;9122;48.406;9.984;2022-12-07T03:00:51;18.93;;;12.60;;
17993;SDS011;9122;48.406;9.984;2022-12-07T03:03:41;15.47;;;13.33;;
17993;SDS011;9122;48.406;9.984;2022-12-07T03:06:34;17.47;;;12.63;;
17993;SDS011;9122;48.406;9.984;2022-12-07T03:09:36;17.83;;;13.60;;
17993;SDS011;9122;48.406;9.984;2022-12-07T03:12:35;16.57;;;13.20;;
17993;SDS011;9122;48.406;9.984;2022-12-07T03:18:32;18.07;;;13.33;;
17993;SDS011;9122;48.406;9.984;2022-12-07T03:21:26;16.37;;;12.60;;
17993;SDS011;9122;48.406;9.984;2022-12-07T03:24:15;14.53;;;11.93;;
17993;SDS011;9122;48.406;9.984;2022-12-07T03:27:13;15.10;;;11.83;;
17993;SDS011;9122;48.406;9.984;2022-12-07T03:30:00;14.20;;;11.30;;
17993;SDS011;9122;48.406;9.984;2022-12-07T03:32:57;15.50;;;12.70;;
17993;SDS011;9122;48.406;9.984;2022-12-07T03:36:04;12.90;;;11.53;;
17993;SDS011;9122;48.406;9.984;2022-12-07T03:42:10;14.30;;;12.80;;
17993;SDS011;9122;48.406;9.984;2022-12-07T03:44:55;14.67;;;12.27;;
17993;SDS011;9122;48.406;9.984;2022-12-07T03:47:42;15.13;;;12.50;;
17993;SDS011;9122;48.406;9.984;2022-12-07T03:50:48;13.27;;;11.87;;
17993;SDS011;9122;48.406;9.984;2022-12-07T03:56:58;13.03;;;11.47;;
17993;SDS011;9122;48.406;9.984;2022-12-07T03:59:44;13.03;;;10.43;;
17993;SDS011;9122;48.406;9.984;2022-12-07T04:02:30;12.37;;;11.13;;
17993;SDS011;9122;48.406;9.984;2022-12-07T04:05:16;12.03;;;10.53;;
17993;SDS011;9122;48.406;9.984;2022-12-07T04:08:00;11.27;;;10.27;;
17993;SDS011;9122;48.406;9.984;2022-12-07T04:10:45;12.07;;;10.70;;
17993;SDS011;9122;48.406;9.984;2022-12-07T04:13:29;10.90;;;9.50;;
17993;SDS011;9122;48.406;9.984;2022-12-07T04:16:33;11.70;;;10.60;;
17993;SDS011;9122;48.406;9.984;2022-12-07T04:19:19;11.70;;;10.47;;
17993;SDS011;9122;48.406;9.984;2022-12-07T04:22:05;10.80;;;9.70;;
17993;SDS011;9122;48.406;9.984;2022-12-07T04:24:50;11.73;;;10.07;;
17993;SDS011;9122;48.406;9.984;2022-12-07T04:27:33;10.97;;;9.90;;
17993;SDS011;9122;48.406;9.984;2022-12-07T04:30:18;10.60;;;9.60;;
17993;SDS011;9122;48.406;9.984;2022-12-07T04:33:03;10.50;;;9.50;;
17993;SDS011;9122;48.406;9.984;2022-12-07T04:35:47;11.13;;;9.33;;
17993;SDS011;9122;48.406;9.984;2022-12-07T04:38:31;10.97;;;9.40;;
17993;SDS011;9122;48.406;9.984;2022-12-07T04:41:16;10.40;;;9.43;;
17993;SDS011;9122;48.406;9.984;2022-12-07T04:44:01;11.10;;;9.90;;
17993;SDS011;9122;48.406;9.984;2022-12-07T04:46:47;12.27;;;10.93;;
17993;SDS011;9122;48.406;9.984;2022-12-07T04:49:33;11.63;;;10.37;;
17993;SDS011;9122;48.406;9.984;2022-12-07T04:52:17;10.80;;;9.70;;
17993;SDS011;9122;48.406;9.984;2022-12-07T04:55:01;11.20;;;10.13;;
17993;SDS011;9122;48.406;9.984;2022-12-07T04:57:46;10.83;;;9.83;;
17993;SDS011;9122;48.406;9.984;2022-12-07T05:00:31;12.00;;;10.80;;
17993;SDS011;9122;48.406;9.984;2022-12-07T05:03:15;11.77;;;10.57;;
17993;SDS011;9122;48.406;9.984;2022-12-07T05:05:59;11.27;;;10.17;;
17993;SDS011;9122;48.406;9.984;2022-12-07T05:08:44;11.77;;;10.57;;
17993;SDS011;9122;48.406;9.984;2022-12-07T05:11:29;10.80;;;9.70;;
17993;SDS011;9122;48.406;9.984;2022-12-07T05:14:22;10.87;;;9.77;;
17993;SDS011;9122;48.406;9.984;2022-12-07T05:17:07;10.47;;;9.40;;
17993;SDS011;9122;48.406;9.984;2022-12-07T05:19:52;11.00;;;9.83;;
17993;SDS011;9122;48.406;9.984;2022-12-07T05:22:36;10.73;;;9.37;;
17993;SDS011;9122;48.406;9.984;2022-12-07T05:25:21;10.83;;;9.50;;
17993;SDS011;9122;48.406;9.984;2022-12-07T05:28:06;10.10;;;9.10;;
17993;SDS011;9122;48.406;9.984;2022-12-07T05:30:50;11.07;;;9.70;;
17993;SDS011;9122;48.406;9.984;2022-12-07T05:33:35;10.20;;;9.23;;
17993;SDS011;9122;48.406;9.984;2022-12-07T05:36:20;10.57;;;9.57;;
17993;SDS011;9122;48.406;9.984;2022-12-07T05:39:04;11.83;;;9.80;;
17993;SDS011;9122;48.406;9.984;2022-12-07T05:41:49;9.63;;;8.70;;
17993;SDS011;9122;48.406;9.984;2022-12-07T05:44:52;11.40;;;9.10;;
17993;SDS011;9122;48.406;9.984;2022-12-07T05:47:36;9.23;;;8.33;;
17993;SDS011;9122;48.406;9.984;2022-12-07T05:50:21;9.33;;;8.40;;
17993;SDS011;9122;48.406;9.984;2022-12-07T05:53:06;14.53;;;7.90;;
17993;SDS011;9122;48.406;9.984;2022-12-07T05:55:51;9.77;;;8.50;;
17993;SDS011;9122;48.406;9.984;2022-12-07T05:58:36;9.23;;;8.20;;
17993;SDS011;9122;48.406;9.984;2022-12-07T06:01:42;9.53;;;7.67;;
17993;SDS011;9122;48.406;9.984;2022-12-07T06:04:28;8.20;;;7.27;;
17993;SDS011;9122;48.406;9.984;2022-12-07T06:07:18;8.53;;;7.80;;
17993;SDS011;9122;48.406;9.984;2022-12-07T06:10:03;8.97;;;8.07;;
17993;SDS011;9122;48.406;9.984;2022-12-07T06:12:48;8.27;;;7.57;;
17993;SDS011;9122;48.406;9.984;2022-12-07T06:15:32;10.20;;;9.10;;
17993;SDS011;9122;48.406;9.984;2022-12-07T06:18:19;9.53;;;8.63;;
17993;SDS011;9122;48.406;9.984;2022-12-07T06:21:03;9.50;;;8.60;;
17993;SDS011;9122;48.406;9.984;2022-12-07T06:23:48;11.03;;;8.60;;
17993;SDS011;9122;48.406;9.984;2022-12-07T06:26:32;10.70;;;9.30;;
17993;SDS011;9122;48.406;9.984;2022-12-07T06:29:17;9.30;;;8.33;;
17993;SDS011;9122;48.406;9.984;2022-12-07T06:32:02;11.23;;;9.80;;
17993;SDS011;9122;48.406;9.984;2022-12-07T06:34:47;10.87;;;9.67;;
17993;SDS011;9122;48.406;9.984;2022-12-07T06:37:31;10.70;;;9.60;;
17993;SDS011;9122;48.406;9.984;2022-12-07T06:40:16;11.07;;;9.90;;
17993;SDS011;9122;48.406;9.984;2022-12-07T06:43:00;11.70;;;10.00;;
17993;SDS011;9122;48.406;9.984;2022-12-07T06:45:44;12.37;;;11.03;;
17993;SDS011;9122;48.406;9.984;2022-12-07T06:48:29;13.50;;;11.13;;
17993;SDS011;9122;48.406;9.984;2022-12-07T06:51:13;12.03;;;10.60;;
17993;SDS011;9122;48.406;9.984;2022-12-07T06:53:58;11.53;;;10.07;;
17993;SDS011;9122;48.406;9.984;2022-12-07T06:56:42;12.17;;;10.87;;
17993;SDS011;9122;48.406;9.984;2022-12-07T06:59:27;14.20;;;11.17;;
17993;SDS011;9122;48.406;9.984;2022-12-07T07:02:12;12.57;;;11.27;;
17993;SDS011;9122;48.406;9.984;2022-12-07T07:04:57;14.80;;;11.03;;
17993;SDS011;9122;48.406;9.984;2022-12-07T07:07:41;11.83;;;10.63;;
17993;SDS011;9122;48.406;9.984;2022-12-07T07:10:26;12.27;;;10.37;;
17993;SDS011;9122;48.406;9.984;2022-12-07T07:13:10;10.67;;;9.57;;
17993;SDS011;9122;48.406;9.984;2022-12-07T07:15:54;10.30;;;9.30;;
17993;SDS011;9122;48.406;9.984;2022-12-07T07:18:39;10.60;;;9.50;;
17993;SDS011;9122;48.406;9.984;2022-12-07T07:21:24;10.93;;;9.77;;
17993;SDS011;9122;48.406;9.984;2022-12-07T07:24:09;11.53;;;9.83;;
17993;SDS011;9122;48.406;9.984;2022-12-07T07:26:53;10.80;;;9.70;;
17993;SDS011;9122;48.406;9.984;2022-12-07T07:29:50;10.47;;;9.37;;
17993;SDS011;9122;48.406;9.984;2022-12-07T07:32:37;11.27;;;9.07;;
17993;SDS011;9122;48.406;9.984;2022-12-07T07:35:22;10.40;;;9.30;;
17993;SDS011;9122;48.406;9.984;2022-12-07T07:38:06;9.77;;;8.87;;
17993;SDS011;9122;48.406;9.984;2022-12-07T07:40:51;8.90;;;8.07;;
17993;SDS011;9122;48.406;9.984;2022-12-07T07:43:36;8.20;;;7.50;;
17993;SDS011;9122;48.406;9.984;2022-12-07T07:46:21;8.67;;;7.87;;
17993;SDS011;9122;48.406;9.984;2022-12-07T07:49:11;10.17;;;9.00;;
17993;SDS011;9122;48.406;9.984;2022-12-07T07:51:56;11.00;;;9.27;;
17993;SDS011;9122;48.406;9.984;2022-12-07T07:54:40;11.43;;;8.97;;
17993;SDS011;9122;48.406;9.984;2022-12-07T07:57:24;9.90;;;8.90;;
17993;SDS011;9122;48.406;9.984;2022-12-07T08:00:12;11.87;;;8.57;;
17993;SDS011;9122;48.406;9.984;2022-12-07T08:03:01;12.27;;;9.00;;
17993;SDS011;9122;48.406;9.984;2022-12-07T08:05:46;10.20;;;8.40;;
17993;SDS011;9122;48.406;9.984;2022-12-07T08:08:32;8.93;;;8.03;;
17993;SDS011;9122;48.406;9.984;2022-12-07T08:11:16;11.20;;;9.27;;
17993;SDS011;9122;48.406;9.984;2022-12-07T08:14:02;11.33;;;9.57;;
17993;SDS011;9122;48.406;9.984;2022-12-07T08:16:47;12.50;;;9.40;;
17993;SDS011;9122;48.406;9.984;2022-12-07T08:19:32;11.77;;;10.10;;
17993;SDS011;9122;48.406;9.984;2022-12-07T08:22:20;10.23;;;9.23;;
17993;SDS011;9122;48.406;9.984;2022-12-07T08:25:07;9.90;;;7.80;;
17993;SDS011;9122;48.406;9.984;2022-12-07T08:27:54;10.13;;;7.33;;
17993;SDS011;9122;48.406;9.984;2022-12-07T08:30:39;7.80;;;7.00;;
17993;SDS011;9122;48.406;9.984;2022-12-07T08:33:24;7.13;;;6.43;;
17993;SDS011;9122;48.406;9.984;2022-12-07T08:36:09;7.53;;;6.83;;
17993;SDS011;9122;48.406;9.984;2022-12-07T08:38:54;8.50;;;7.43;;
17993;SDS011;9122;48.406;9.984;2022-12-07T08:41:39;7.80;;;7.00;;
17993;SDS011;9122;48.406;9.984;2022-12-07T08:44:23;8.07;;;7.27;;
17993;SDS011;9122;48.406;9.984;2022-12-07T08:47:08;8.77;;;7.03;;
17993;SDS011;9122;48.406;9.984;2022-12-07T08:49:54;7.33;;;6.63;;
17993;SDS011;9122;48.406;9.984;2022-12-07T08:52:38;8.70;;;6.87;;
17993;SDS011;9122;48.406;9.984;2022-12-07T08:55:25;7.90;;;7.10;;
17993;SDS011;9122;48.406;9.984;2022-12-07T08:58:11;8.47;;;6.43;;
17993;SDS011;9122;48.406;9.984;2022-12-07T09:00:55;7.67;;;6.93;;
17993;SDS011;9122;48.406;9.984;2022-12-07T09:03:40;6.63;;;5.87;;
17993;SDS011;9122;48.406;9.984;2022-12-07T09:06:27;5.77;;;5.10;;
17993;SDS011;9122;48.406;9.984;2022-12-07T09:09:12;6.00;;;5.40;;
17993;SDS011;9122;48.406;9.984;2022-12-07T09:11:58;5.77;;;5.23;;
17993;SDS011;9122;48.406;9.984;2022-12-07T09:14:43;4.73;;;4.33;;
17993;SDS011;9122;48.406;9.984;2022-12-07T09:17:27;5.93;;;5.33;;
17993;SDS011;9122;48.406;9.984;2022-12-07T09:20:16;5.17;;;4.70;;
17993;SDS011;9122;48.406;9.984;2022-12-07T09:23:01;5.57;;;5.07;;
17993;SDS011;9122;48.406;9.984;2022-12-07T09:25:46;5.50;;;4.93;;
17993;SDS011;9122;48.406;9.984;2022-12-07T09:28:30;5.53;;;5.03;;
17993;SDS011;9122;48.406;9.984;2022-12-07T09:31:17;5.73;;;5.33;;
17993;SDS011;9122;48.406;9.984;2022-12-07T09:34:01;6.00;;;5.40;;
17993;SDS011;9122;48.406;9.984;2022-12-07T09:36:46;5.93;;;5.20;;
17993;SDS011;9122;48.406;9.984;2022-12-07T09:39:30;6.43;;;5.23;;
17993;SDS011;9122;48.406;9.984;2022-12-07T09:42:34;6.00;;;5.50;;
17993;SDS011;9122;48.406;9.984;2022-12-07T09:48:12;5.87;;;5.30;;
17993;SDS011;9122;48.406;9.984;2022-12-07T09:51:17;6.23;;;5.23;;
17993;SDS011;9122;48.406;9.984;2022-12-07T09:54:02;6.23;;;5.63;;
17993;SDS011;9122;48.406;9.984;2022-12-07T09:56:46;5.47;;;4.67;;
17993;SDS011;9122;48.406;9.984;2022-12-07T09:59:30;5.13;;;4.73;;
17993;SDS011;9122;48.406;9.984;2022-12-07T10:02:23;6.33;;;5.17;;
17993;SDS011;9122;48.406;9.984;2022-12-07T10:05:18;5.33;;;4.83;;
17993;SDS011;9122;48.406;9.984;2022-12-07T10:08:33;4.90;;;4.40;;
17993;SDS011;9122;48.406;9.984;2022-12-07T10:11:18;5.03;;;4.60;;
17993;SDS011;9122;48.406;9.984;2022-12-07T10:14:12;4.23;;;3.93;;
17993;SDS011;9122;48.406;9.984;2022-12-07T10:16:57;4.87;;;3.93;;
17993;SDS011;9122;48.406;9.984;2022-12-07T10:19:42;4.97;;;4.47;;
17993;SDS011;9122;48.406;9.984;2022-12-07T10:22:26;5.30;;;4.80;;
17993;SDS011;9122;48.406;9.984;2022-12-07T10:25:18;4.30;;;4.00;;
17993;SDS011;9122;48.406;9.984;2022-12-07T10:30:58;4.77;;;4.00;;
17993;SDS011;9122;48.406;9.984;2022-12-07T10:36:40;4.93;;;4.53;;
17993;SDS011;9122;48.406;9.984;2022-12-07T10:39:25;5.40;;;4.23;;
17993;SDS011;9122;48.406;9.984;2022-12-07T10:42:28;4.67;;;4.27;;
17993;SDS011;9122;48.406;9.984;2022-12-07T11:12:15;4.17;;;3.87;;
17993;SDS011;9122;48.406;9.984;2022-12-07T11:15:23;3.50;;;3.20;;
17993;SDS011;9122;48.406;9.984;2022-12-07T11:24:56;3.20;;;2.90;;
17993;SDS011;9122;48.406;9.984;2022-12-07T11:33:57;5.30;;;3.23;;
17993;SDS011;9122;48.406;9.984;2022-12-07T11:37:02;3.20;;;3.00;;
17993;SDS011;9122;48.406;9.984;2022-12-07T11:39:59;3.70;;;3.40;;
17993;SDS011;9122;48.406;9.984;2022-12-07T11:42:51;3.37;;;3.17;;
17993;SDS011;9122;48.406;9.984;2022-12-07T11:45:41;3.27;;;3.07;;
17993;SDS011;9122;48.406;9.984;2022-12-07T11:48:38;2.53;;;2.33;;
17993;SDS011;9122;48.406;9.984;2022-12-07T11:51:33;2.40;;;2.20;;
17993;SDS011;9122;48.406;9.984;2022-12-07T11:54:23;3.00;;;2.80;;
17993;SDS011;9122;48.406;9.984;2022-12-07T11:57:19;2.90;;;2.70;;
17993;SDS011;9122;48.406;9.984;2022-12-07T12:00:12;3.63;;;2.50;;
17993;SDS011;9122;48.406;9.984;2022-12-07T12:03:01;3.53;;;3.23;;
17993;SDS011;9122;48.406;9.984;2022-12-07T12:05:55;4.33;;;2.63;;
17993;SDS011;9122;48.406;9.984;2022-12-07T12:08:42;3.33;;;3.10;;
17993;SDS011;9122;48.406;9.984;2022-12-07T12:21:15;2.53;;;2.33;;
17993;SDS011;9122;48.406;9.984;2022-12-07T12:24:04;2.60;;;2.40;;
17993;SDS011;9122;48.406;9.984;2022-12-07T12:26:59;2.97;;;2.77;;
17993;SDS011;9122;48.406;9.984;2022-12-07T12:29:52;3.03;;;2.23;;
17993;SDS011;9122;48.406;9.984;2022-12-07T12:32:39;2.73;;;2.53;;
17993;SDS011;9122;48.406;9.984;2022-12-07T12:35:36;2.70;;;2.50;;
17993;SDS011;9122;48.406;9.984;2022-12-07T12:38:29;3.10;;;2.90;;
17993;SDS011;9122;48.406;9.984;2022-12-07T12:53:23;2.60;;;2.40;;
17993;SDS011;9122;48.406;9.984;2022-12-07T12:59:45;3.00;;;2.80;;
17993;SDS011;9122;48.406;9.984;2022-12-07T13:03:16;2.60;;;2.40;;
17993;SDS011;9122;48.406;9.984;2022-12-07T13:05:38;2.60;;;2.40;;
17993;SDS011;9122;48.406;9.984;2022-12-07T13:08:24;2.67;;;2.47;;
17993;SDS011;9122;48.406;9.984;2022-12-07T13:11:19;3.70;;;2.77;;
17993;SDS011;9122;48.406;9.984;2022-12-07T13:20:39;2.53;;;2.33;;
17993;SDS011;9122;48.406;9.984;2022-12-07T13:29:20;2.43;;;2.23;;
17993;SDS011;9122;48.406;9.984;2022-12-07T13:32:17;2.60;;;2.40;;
17993;SDS011;9122;48.406;9.984;2022-12-07T13:35:33;2.50;;;2.30;;
17993;SDS011;9122;48.406;9.984;2022-12-07T13:38:22;3.03;;;2.33;;
17993;SDS011;9122;48.406;9.984;2022-12-07T13:44:01;5.37;;;2.50;;
17993;SDS011;9122;48.406;9.984;2022-12-07T13:47:14;2.10;;;1.93;;
17993;SDS011;9122;48.406;9.984;2022-12-07T13:50:21;2.20;;;2.00;;
17993;SDS011;9122;48.406;9.984;2022-12-07T13:53:11;2.07;;;1.97;;
17993;SDS011;9122;48.406;9.984;2022-12-07T13:55:58;2.53;;;2.30;;
17993;SDS011;9122;48.406;9.984;2022-12-07T13:58:44;1.70;;;1.60;;
17993;SDS011;9122;48.406;9.984;2022-12-07T14:01:32;1.50;;;1.40;;
17993;SDS011;9122;48.406;9.984;2022-12-07T14:10:26;2.40;;;2.20;;
17993;SDS011;9122;48.406;9.984;2022-12-07T14:16:23;2.90;;;2.20;;
17993;SDS011;9122;48.406;9.984;2022-12-07T14:28:09;2.47;;;2.20;;
17993;SDS011;9122;48.406;9.984;2022-12-07T14:31:11;2.90;;;2.67;;
17993;SDS011;9122;48.406;9.984;2022-12-07T14:34:00;3.63;;;2.70;;
17993;SDS011;9122;48.406;9.984;2022-12-07T14:36:44;17.40;;;3.20;;
17993;SDS011;9122;48.406;9.984;2022-12-07T14:39:29;4.53;;;2.83;;
17993;SDS011;9122;48.406;9.984;2022-12-07T14:42:14;2.43;;;2.23;;
17993;SDS011;9122;48.406;9.984;2022-12-07T14:44:58;3.13;;;2.47;;
17993;SDS011;9122;48.406;9.984;2022-12-07T14:47:44;3.40;;;3.10;;
17993;SDS011;9122;48.406;9.984;2022-12-07T14:50:29;2.73;;;2.50;;
17993;SDS011;9122;48.406;9.984;2022-12-07T14:53:14;2.67;;;2.47;;
17993;SDS011;9122;48.406;9.984;2022-12-07T14:56:01;3.07;;;2.87;;
17993;SDS011;9122;48.406;9.984;2022-12-07T14:58:45;3.47;;;3.17;;
17993;SDS011;9122;48.406;9.984;2022-12-07T15:01:32;4.23;;;3.70;;
17993;SDS011;9122;48.406;9.984;2022-12-07T15:04:15;2.97;;;2.77;;
17993;SDS011;9122;48.406;9.984;2022-12-07T15:07:02;3.23;;;2.30;;
17993;SDS011;9122;48.406;9.984;2022-12-07T15:09:48;3.77;;;3.47;;
17993;SDS011;9122;48.406;9.984;2022-12-07T15:12:33;2.80;;;2.60;;
17993;SDS011;9122;48.406;9.984;2022-12-07T15:15:17;2.70;;;2.50;;
17993;SDS011;9122;48.406;9.984;2022-12-07T15:18:02;3.20;;;2.90;;
17993;SDS011;9122;48.406;9.984;2022-12-07T15:20:47;2.83;;;2.63;;
17993;SDS011;9122;48.406;9.984;2022-12-07T15:23:32;3.67;;;2.67;;
17993;SDS011;9122;48.406;9.984;2022-12-07T15:26:16;2.20;;;2.00;;
17993;SDS011;9122;48.406;9.984;2022-12-07T15:29:01;3.27;;;2.60;;
17993;SDS011;9122;48.406;9.984;2022-12-07T15:31:47;2.40;;;2.10;;
17993;SDS011;9122;48.406;9.984;2022-12-07T15:34:33;2.33;;;2.20;;
17993;SDS011;9122;48.406;9.984;2022-12-07T15:37:17;2.93;;;2.63;;
17993;SDS011;9122;48.406;9.984;2022-12-07T15:40:01;3.13;;;2.83;;
17993;SDS011;9122;48.406;9.984;2022-12-07T15:42:46;2.90;;;2.60;;
17993;SDS011;9122;48.406;9.984;2022-12-07T15:45:30;2.80;;;2.40;;
17993;SDS011;9122;48.406;9.984;2022-12-07T15:48:15;2.43;;;2.23;;
17993;SDS011;9122;48.406;9.984;2022-12-07T15:51:03;2.60;;;2.40;;
17993;SDS011;9122;48.406;9.984;2022-12-07T15:53:49;2.60;;;2.40;;
17993;SDS011;9122;48.406;9.984;2022-12-07T15:56:34;2.87;;;2.60;;
17993;SDS011;9122;48.406;9.984;2022-12-07T15:59:18;3.43;;;3.13;;
17993;SDS011;9122;48.406;9.984;2022-12-07T16:02:03;2.37;;;2.27;;
17993;SDS011;9122;48.406;9.984;2022-12-07T16:04:48;2.93;;;2.47;;
17993;SDS011;9122;48.406;9.984;2022-12-07T16:07:34;5.10;;;2.67;;
17993;SDS011;9122;48.406;9.984;2022-12-07T16:10:19;2.60;;;2.40;;
17993;SDS011;9122;48.406;9.984;2022-12-07T16:13:04;4.07;;;3.63;;
17993;SDS011;9122;48.406;9.984;2022-12-07T16:15:48;4.43;;;4.07;;
17993;SDS011;9122;48.406;9.984;2022-12-07T16:18:33;6.10;;;4.03;;
17993;SDS011;9122;48.406;9.984;2022-12-07T16:21:18;3.90;;;3.60;;
17993;SDS011;9122;48.406;9.984;2022-12-07T16:24:04;4.80;;;4.20;;
17993;SDS011;9122;48.406;9.984;2022-12-07T16:26:49;5.57;;;5.10;;
17993;SDS011;9122;48.406;9.984;2022-12-07T16:29:33;6.43;;;5.83;;
17993;SDS011;9122;48.406;9.984;2022-12-07T16:32:18;6.07;;;5.50;;
17993;SDS011;9122;48.406;9.984;2022-12-07T16:35:03;8.43;;;5.47;;
17993;SDS011;9122;48.406;9.984;2022-12-07T16:37:47;8.00;;;6.00;;
17993;SDS011;9122;48.406;9.984;2022-12-07T16:40:32;5.70;;;4.80;;
17993;SDS011;9122;48.406;9.984;2022-12-07T16:43:16;6.97;;;4.30;;
17993;SDS011;9122;48.406;9.984;2022-12-07T16:46:01;4.97;;;4.47;;
17993;SDS011;9122;48.406;9.984;2022-12-07T16:48:46;5.03;;;4.63;;
17993;SDS011;9122;48.406;9.984;2022-12-07T16:51:30;4.93;;;4.20;;
17993;SDS011;9122;48.406;9.984;2022-12-07T16:54:15;4.83;;;4.30;;
17993;SDS011;9122;48.406;9.984;2022-12-07T16:56:59;4.53;;;4.17;;
17993;SDS011;9122;48.406;9.984;2022-12-07T16:59:44;4.57;;;4.17;;
17993;SDS011;9122;48.406;9.984;2022-12-07T17:02:29;5.10;;;4.67;;
17993;SDS011;9122;48.406;9.984;2022-12-07T17:05:13;4.67;;;4.20;;
17993;SDS011;9122;48.406;9.984;2022-12-07T17:07:58;5.63;;;5.03;;
17993;SDS011;9122;48.406;9.984;2022-12-07T17:10:43;5.73;;;5.23;;
17993;SDS011;9122;48.406;9.984;2022-12-07T17:13:29;6.87;;;5.93;;
17993;SDS011;9122;48.406;9.984;2022-12-07T17:16:32;7.93;;;6.80;;
17993;SDS011;9122;48.406;9.984;2022-12-07T17:19:20;6.73;;;5.83;;
17993;SDS011;9122;48.406;9.984;2022-12-07T17:22:05;9.53;;;6.17;;
17993;SDS011;9122;48.406;9.984;2022-12-07T17:24:54;6.93;;;5.60;;
17993;SDS011;9122;48.406;9.984;2022-12-07T17:27:39;7.23;;;5.73;;
17993;SDS011;9122;48.406;9.984;2022-12-07T17:30:24;6.80;;;5.77;;
17993;SDS011;9122;48.406;9.984;2022-12-07T17:33:08;5.97;;;5.37;;
17993;SDS011;9122;48.406;9.984;2022-12-07T17:35:53;7.50;;;5.67;;
17993;SDS011;9122;48.406;9.984;2022-12-07T17:38:37;8.27;;;6.80;;
17993;SDS011;9122;48.406;9.984;2022-12-07T17:41:23;8.50;;;6.87;;
17993;SDS011;9122;48.406;9.984;2022-12-07T17:44:28;8.10;;;7.30;;
17993;SDS011;9122;48.406;9.984;2022-12-07T17:47:12;8.20;;;7.40;;
17993;SDS011;9122;48.406;9.984;2022-12-07T17:49:59;9.90;;;8.37;;
17993;SDS011;9122;48.406;9.984;2022-12-07T17:52:43;10.50;;;8.53;;
17993;SDS011;9122;48.406;9.984;2022-12-07T17:55:52;10.57;;;8.23;;
17993;SDS011;9122;48.406;9.984;2022-12-07T17:58:37;7.97;;;7.20;;
17993;SDS011;9122;48.406;9.984;2022-12-07T18:01:22;8.60;;;7.80;;
17993;SDS011;9122;48.406;9.984;2022-12-07T18:04:06;10.70;;;8.27;;
17993;SDS011;9122;48.406;9.984;2022-12-07T18:06:51;11.80;;;8.47;;
17993;SDS011;9122;48.406;9.984;2022-12-07T18:09:36;10.60;;;7.70;;
17993;SDS011;9122;48.406;9.984;2022-12-07T18:12:21;10.47;;;8.20;;
17993;SDS011;9122;48.406;9.984;2022-12-07T18:15:07;8.10;;;7.40;;
17993;SDS011;9122;48.406;9.984;2022-12-07T18:17:53;9.53;;;8.53;;
17993;SDS011;9122;48.406;9.984;2022-12-07T18:20:38;8.23;;;7.43;;
17993;SDS011;9122;48.406;9.984;2022-12-07T18:23:26;7.57;;;6.80;;
17993;SDS011;9122;48.406;9.984;2022-12-07T18:26:11;7.97;;;7.07;;
17993;SDS011;9122;48.406;9.984;2022-12-07T18:28:59;8.57;;;7.67;;
17993;SDS011;9122;48.406;9.984;2022-12-07T18:31:44;8.77;;;7.63;;
17993;SDS011;9122;48.406;9.984;2022-12-07T18:34:32;7.90;;;7.20;;
17993;SDS011;9122;48.406;9.984;2022-12-07T18:37:16;8.97;;;7.13;;
17993;SDS011;9122;48.406;9.984;2022-12-07T18:43:33;11.27;;;9.37;;
17993;SDS011;9122;48.406;9.984;2022-12-07T18:46:20;9.70;;;8.77;;
17993;SDS011;9122;48.406;9.984;2022-12-07T18:49:13;10.67;;;9.50;;
17993;SDS011;9122;48.406;9.984;2022-12-07T18:51:57;10.50;;;9.40;;
17993;SDS011;9122;48.406;9.984;2022-12-07T18:54:42;9.63;;;8.67;;
17993;SDS011;9122;48.406;9.984;2022-12-07T18:57:27;10.97;;;8.57;;
17993;SDS011;9122;48.406;9.984;2022-12-07T19:00:21;10.90;;;9.17;;
17993;SDS011;9122;48.406;9.984;2022-12-07T19:03:21;10.23;;;9.20;;
17993;SDS011;9122;48.406;9.984;2022-12-07T19:06:10;11.60;;;10.27;;
17993;SDS011;9122;48.406;9.984;2022-12-07T19:08:54;10.10;;;9.03;;
17993;SDS011;9122;48.406;9.984;2022-12-07T19:11:40;9.27;;;8.37;;
17993;SDS011;9122;48.406;9.984;2022-12-07T19:14:35;10.77;;;9.00;;